createdAt,value
2023-05-05T00:00:11.285Z,99489.22
2023-05-05T00:02:37.877Z,99481.38
2023-05-05T00:05:04.287Z,99476.19
2023-05-05T00:07:30.611Z,99480.38
2023-05-05T00:09:56.971Z,99478.31
2023-05-05T00:12:23.310Z,99480.09
2023-05-05T00:14:49.628Z,99475.94
2023-05-05T00:17:16.064Z,99475.00
2023-05-05T00:19:42.423Z,99472.56
2023-05-05T00:22:08.834Z,99467.09
2023-05-05T00:24:35.258Z,99467.75
2023-05-05T00:27:01.580Z,99462.94
2023-05-05T00:29:27.914Z,99458.94
2023-05-05T00:31:54.291Z,99454.47
2023-05-05T00:34:20.619Z,99469.94
2023-05-05T00:36:46.921Z,99467.06
2023-05-05T00:39:13.290Z,99464.72
2023-05-05T00:41:39.889Z,99465.16
2023-05-05T00:44:06.234Z,99467.81
2023-05-05T00:46:32.642Z,99464.50
2023-05-05T00:48:59.132Z,99462.75
2023-05-05T00:51:25.622Z,99465.31
2023-05-05T00:53:52.014Z,99464.56
2023-05-05T00:56:18.421Z,99468.41
2023-05-05T00:58:44.889Z,99471.53
2023-05-05T01:01:11.336Z,99466.84
2023-05-05T01:03:37.926Z,99471.69
2023-05-05T01:06:04.350Z,99468.94
2023-05-05T01:08:30.741Z,99464.13
2023-05-05T01:10:57.190Z,99461.25
2023-05-05T01:13:23.505Z,99474.63
2023-05-05T01:15:51.123Z,99469.16
2023-05-05T01:18:17.558Z,99465.63
2023-05-05T01:20:43.920Z,99468.84
2023-05-05T01:23:10.309Z,99468.69
2023-05-05T01:25:36.633Z,99467.56
2023-05-05T01:28:02.969Z,99472.91
2023-05-05T01:30:29.345Z,99477.25
2023-05-05T01:32:55.723Z,99479.50
2023-05-05T01:35:22.102Z,99479.97
2023-05-05T01:37:49.720Z,99478.53
2023-05-05T01:40:16.051Z,99480.16
2023-05-05T01:42:42.350Z,99475.81
2023-05-05T01:45:08.700Z,99468.09
2023-05-05T01:47:35.038Z,99466.19
2023-05-05T01:50:01.416Z,99465.72
2023-05-05T01:52:28.007Z,99463.41
2023-05-05T01:54:54.358Z,99459.41
2023-05-05T01:57:20.687Z,99460.38
2023-05-05T01:59:48.189Z,99458.44
2023-05-05T02:02:14.510Z,99459.88
2023-05-05T02:04:40.919Z,99462.47
2023-05-05T02:07:07.283Z,99457.97
2023-05-05T02:09:33.741Z,99459.72
2023-05-05T02:12:00.191Z,99457.97
2023-05-05T02:14:26.590Z,99462.44
2023-05-05T02:16:52.909Z,99457.13
2023-05-05T02:19:19.815Z,99451.22
2023-05-05T02:21:46.224Z,99456.19
2023-05-05T02:24:12.598Z,99449.13
2023-05-05T02:26:38.937Z,99442.38
2023-05-05T02:29:05.331Z,99444.94
2023-05-05T02:31:31.763Z,99429.19
2023-05-05T02:33:58.143Z,99437.69
2023-05-05T02:36:24.718Z,99435.59
2023-05-05T02:38:55.353Z,99436.25
2023-05-05T02:41:23.504Z,99437.69
2023-05-05T02:43:50.105Z,99425.00
2023-05-05T02:46:18.034Z,99430.75
2023-05-05T02:48:46.443Z,99431.41
2023-05-05T02:51:12.931Z,99427.06
2023-05-05T02:53:39.345Z,99435.56
2023-05-05T02:56:05.655Z,99436.03
2023-05-05T02:58:35.958Z,99428.50
2023-05-05T03:01:04.375Z,99435.09
2023-05-05T03:03:30.977Z,99438.72
2023-05-05T03:05:57.852Z,99436.97
2023-05-05T03:08:24.212Z,99436.28
2023-05-05T03:10:50.556Z,99441.41
2023-05-05T03:13:17.404Z,99441.72
2023-05-05T03:15:45.154Z,99445.72
2023-05-05T03:18:12.513Z,99448.28
2023-05-05T03:20:42.832Z,99447.44
2023-05-05T03:23:11.393Z,99460.09
2023-05-05T03:25:37.810Z,99459.59
2023-05-05T03:28:04.398Z,99458.84
2023-05-05T03:30:30.995Z,99464.56
2023-05-05T03:32:57.629Z,99464.38
2023-05-05T03:35:24.659Z,99467.91
2023-05-05T03:37:51.006Z,99478.66
2023-05-05T03:40:17.958Z,99475.44
2023-05-05T03:42:44.415Z,99479.91
2023-05-05T03:45:11.055Z,99476.22
2023-05-05T03:47:38.613Z,99473.19
2023-05-05T03:50:05.529Z,99478.31
2023-05-05T03:52:32.179Z,99469.75
2023-05-05T03:54:58.603Z,99472.59
2023-05-05T03:57:25.109Z,99475.13
2023-05-05T03:59:51.570Z,99478.78
2023-05-05T04:02:18.905Z,99480.22
2023-05-05T04:04:46.122Z,99480.81
2023-05-05T04:07:13.019Z,99479.00
2023-05-05T04:09:39.416Z,99474.97
2023-05-05T04:12:05.851Z,99478.81
2023-05-05T04:14:32.287Z,99470.66
2023-05-05T04:16:58.956Z,99469.06
2023-05-05T04:19:25.590Z,99472.69
2023-05-05T04:21:52.097Z,99475.81
2023-05-05T04:24:18.887Z,99478.38
2023-05-05T04:26:45.307Z,99484.97
2023-05-05T04:29:12.064Z,99478.38
2023-05-05T04:31:39.076Z,99483.84
2023-05-05T04:34:06.094Z,99477.09
2023-05-05T04:36:32.799Z,99480.03
2023-05-05T04:38:59.539Z,99474.06
2023-05-05T04:41:27.670Z,99481.25
2023-05-05T04:43:55.641Z,99485.09
2023-05-05T04:46:22.152Z,99491.91
2023-05-05T04:48:48.684Z,99495.75
2023-05-05T04:51:15.266Z,99497.19
2023-05-05T04:53:41.752Z,99507.75
2023-05-05T04:56:08.313Z,99506.56
2023-05-05T04:58:34.829Z,99511.31
2023-05-05T05:01:01.549Z,99518.47
2023-05-05T05:03:28.301Z,99520.69
2023-05-05T05:05:54.764Z,99517.81
2023-05-05T05:08:21.361Z,99520.66
2023-05-05T05:10:47.954Z,99520.16
2023-05-05T05:13:14.332Z,99518.63
2023-05-05T05:15:40.793Z,99519.84
2023-05-05T05:18:07.547Z,99529.78
2023-05-05T05:20:34.047Z,99524.06
2023-05-05T05:23:00.839Z,99527.91
2023-05-05T05:25:27.954Z,99532.31
2023-05-05T05:28:08.424Z,99527.81
2023-05-05T05:30:39.523Z,99528.50
2023-05-05T05:33:07.885Z,99526.91
2023-05-05T05:35:34.419Z,99530.91
2023-05-05T05:38:00.966Z,99525.88
2023-05-05T05:40:27.359Z,99525.88
2023-05-05T05:42:54.735Z,99520.03
2023-05-05T05:45:21.331Z,99524.56
2023-05-05T05:47:47.876Z,99519.88
2023-05-05T05:50:14.330Z,99523.09
2023-05-05T05:52:41.310Z,99526.78
2023-05-05T05:55:07.884Z,99526.16
2023-05-05T05:57:34.795Z,99526.25
2023-05-05T06:00:02.869Z,99531.97
2023-05-05T06:02:38.276Z,99533.00
2023-05-05T06:05:07.029Z,99530.34
2023-05-05T06:07:33.758Z,99528.63
2023-05-05T06:10:10.789Z,99528.38
2023-05-05T06:12:46.174Z,99526.34
2023-05-05T06:15:12.551Z,99527.72
2023-05-05T06:17:39.151Z,99528.50
2023-05-05T06:20:05.979Z,99523.56
2023-05-05T06:22:32.485Z,99515.41
2023-05-05T06:24:59.457Z,99520.13
2023-05-05T06:27:26.091Z,99526.53
2023-05-05T06:29:52.483Z,99523.47
2023-05-05T06:32:18.833Z,99523.84
2023-05-05T06:34:45.261Z,99527.69
2023-05-05T06:37:11.631Z,99518.13
2023-05-05T06:39:37.978Z,99518.53
2023-05-05T06:42:04.518Z,99523.44
2023-05-05T06:44:32.559Z,99524.34
2023-05-05T06:46:58.970Z,99526.63
2023-05-05T06:49:25.655Z,99527.81
2023-05-05T06:51:52.035Z,99517.56
2023-05-05T06:54:18.419Z,99520.63
2023-05-05T06:56:44.891Z,99526.13
2023-05-05T06:59:11.332Z,99530.03
2023-05-05T07:01:37.677Z,99526.97
2023-05-05T07:04:04.137Z,99529.69
2023-05-05T07:06:30.514Z,99518.91
2023-05-05T07:08:56.931Z,99519.69
2023-05-05T07:11:23.436Z,99519.41
2023-05-05T07:13:49.855Z,99515.69
2023-05-05T07:16:16.302Z,99519.88
2023-05-05T07:18:42.848Z,99514.53
2023-05-05T07:21:09.241Z,99515.94
2023-05-05T07:23:35.607Z,99512.53
2023-05-05T07:26:02.030Z,99511.06
2023-05-05T07:28:28.418Z,99503.78
2023-05-05T07:30:54.813Z,99505.66
2023-05-05T07:33:21.238Z,99498.19
2023-05-05T07:35:47.631Z,99501.00
2023-05-05T07:38:14.023Z,99501.63
2023-05-05T07:40:40.419Z,99505.44
2023-05-05T07:43:07.055Z,99497.47
2023-05-05T07:45:33.647Z,99498.94
2023-05-05T07:48:00.221Z,99497.84
2023-05-05T07:50:26.730Z,99502.56
2023-05-05T07:53:02.144Z,99500.56
2023-05-05T07:55:36.910Z,99501.72
2023-05-05T07:58:03.283Z,99513.00
2023-05-05T08:00:29.677Z,99504.22
2023-05-05T08:02:56.193Z,99500.91
2023-05-05T08:05:22.637Z,99500.78
2023-05-05T08:07:49.033Z,99505.41
2023-05-05T08:10:15.495Z,99499.59
2023-05-05T08:12:41.904Z,99492.53
2023-05-05T08:15:08.830Z,99489.59
2023-05-05T08:17:35.592Z,99494.50
2023-05-05T08:20:01.942Z,99496.47
2023-05-05T08:22:28.355Z,99490.81
2023-05-05T08:24:54.773Z,99491.47
2023-05-05T08:27:21.143Z,99493.31
2023-05-05T08:29:47.572Z,99491.06
2023-05-05T08:32:13.991Z,99492.97
2023-05-05T08:34:40.327Z,99483.75
2023-05-05T08:37:06.866Z,99494.94
2023-05-05T08:39:33.260Z,99487.41
2023-05-05T08:41:59.733Z,99483.91
2023-05-05T08:44:26.223Z,99485.16
2023-05-05T08:46:52.636Z,99486.06
2023-05-05T08:49:19.057Z,99479.38
2023-05-05T08:51:45.456Z,99483.69
2023-05-05T08:54:11.896Z,99481.72
2023-05-05T08:56:38.324Z,99484.13
2023-05-05T08:59:04.709Z,99473.56
2023-05-05T09:01:31.158Z,99472.94
2023-05-05T09:03:57.582Z,99471.38
2023-05-05T09:06:23.966Z,99470.66
2023-05-05T09:08:50.420Z,99470.81
2023-05-05T09:11:16.785Z,99471.03
2023-05-05T09:13:49.214Z,99468.81
2023-05-05T09:16:15.642Z,99477.00
2023-05-05T09:18:42.017Z,99471.16
2023-05-05T09:21:08.464Z,99470.84
2023-05-05T09:23:34.860Z,99473.38
2023-05-05T09:26:01.179Z,99469.97
2023-05-05T09:28:27.649Z,99471.59
2023-05-05T09:30:54.108Z,99473.00
2023-05-05T09:33:20.499Z,99475.31
2023-05-05T09:35:46.949Z,99476.84
2023-05-05T09:38:13.359Z,99474.88
2023-05-05T09:40:39.726Z,99468.50
2023-05-05T09:43:06.215Z,99468.31
2023-05-05T09:45:32.648Z,99469.47
2023-05-05T09:48:00.528Z,99461.38
2023-05-05T09:50:27.287Z,99466.94
2023-05-05T09:52:53.810Z,99462.25
2023-05-05T09:55:20.255Z,99461.00
2023-05-05T09:57:46.698Z,99458.50
2023-05-05T10:00:13.299Z,99464.72
2023-05-05T10:02:39.712Z,99462.69
2023-05-05T10:05:06.207Z,99458.50
2023-05-05T10:07:32.666Z,99466.78
2023-05-05T10:09:59.044Z,99464.34
2023-05-05T10:12:25.434Z,99456.16
2023-05-05T10:14:51.863Z,99462.75
2023-05-05T10:17:18.224Z,99462.03
2023-05-05T10:19:44.609Z,99463.22
2023-05-05T10:22:11.052Z,99461.59
2023-05-05T10:24:37.453Z,99465.28
2023-05-05T10:27:03.861Z,99466.19
2023-05-05T10:29:30.343Z,99459.78
2023-05-05T10:31:56.790Z,99455.75
2023-05-05T10:34:23.282Z,99452.13
2023-05-05T10:36:49.742Z,99452.50
2023-05-05T10:39:16.103Z,99450.41
2023-05-05T10:41:42.505Z,99439.38
2023-05-05T10:44:09.054Z,99435.06
2023-05-05T10:46:35.599Z,99439.34
2023-05-05T10:49:02.114Z,99440.00
2023-05-05T10:51:39.355Z,99436.31
2023-05-05T10:54:06.661Z,99441.28
2023-05-05T10:56:33.142Z,99434.34
2023-05-05T10:59:00.640Z,99429.84
2023-05-05T11:01:27.438Z,99426.97
2023-05-05T11:03:54.044Z,99422.78
2023-05-05T11:06:20.445Z,99424.44
2023-05-05T11:08:46.815Z,99413.19
2023-05-05T11:11:13.327Z,99415.47
2023-05-05T11:13:39.730Z,99402.94
2023-05-05T11:16:06.100Z,99399.25
2023-05-05T11:18:32.523Z,99404.78
2023-05-05T11:20:59.010Z,99412.00
2023-05-05T11:23:25.428Z,99407.34
2023-05-05T11:25:51.812Z,99400.34
2023-05-05T11:28:18.183Z,99393.69
2023-05-05T11:30:44.615Z,99391.19
2023-05-05T11:33:11.524Z,99390.56
2023-05-05T11:35:37.921Z,99388.69
2023-05-05T11:38:04.329Z,99385.41
2023-05-05T11:40:30.798Z,99391.28
2023-05-05T11:42:57.153Z,99399.19
2023-05-05T11:45:23.567Z,99392.50
2023-05-05T11:47:50.104Z,99398.91
2023-05-05T11:50:16.517Z,99397.00
2023-05-05T11:52:42.870Z,99399.34
2023-05-05T11:55:09.300Z,99399.47
2023-05-05T11:57:35.646Z,99392.31
2023-05-05T12:00:02.017Z,99393.22
2023-05-05T12:02:31.036Z,99394.09
2023-05-05T12:04:57.543Z,99398.56
2023-05-05T12:07:23.914Z,99387.88
2023-05-05T12:09:50.346Z,99389.69
2023-05-05T12:12:16.725Z,99386.34
2023-05-05T12:14:43.101Z,99390.97
2023-05-05T12:17:09.528Z,99382.94
2023-05-05T12:19:35.905Z,99386.63
2023-05-05T12:22:02.311Z,99381.41
2023-05-05T12:24:28.766Z,99373.31
2023-05-05T12:26:55.134Z,99386.53
2023-05-05T12:29:21.491Z,99381.09
2023-05-05T12:31:47.976Z,99382.75
2023-05-05T12:34:14.393Z,99387.94
2023-05-05T12:36:40.718Z,99381.44
2023-05-05T12:39:07.122Z,99373.66
2023-05-05T12:41:33.522Z,99368.19
2023-05-05T12:43:59.965Z,99361.03
2023-05-05T12:46:26.532Z,99363.41
2023-05-05T12:48:53.017Z,99357.53
2023-05-05T12:51:19.402Z,99352.44
2023-05-05T12:53:45.981Z,99357.91
2023-05-05T12:56:12.353Z,99357.16
2023-05-05T12:58:38.688Z,99354.44
2023-05-05T13:01:05.130Z,99357.22
2023-05-05T13:03:31.575Z,99342.81
2023-05-05T13:05:58.085Z,99340.28
2023-05-05T13:08:24.592Z,99338.38
2023-05-05T13:10:50.941Z,99333.22
2023-05-05T13:13:17.399Z,99332.53
2023-05-05T13:15:43.949Z,99329.19
2023-05-05T13:18:10.394Z,99322.59
2023-05-05T13:20:36.835Z,99315.25
2023-05-05T13:23:03.256Z,99318.56
2023-05-05T13:25:29.607Z,99308.78
2023-05-05T13:27:56.031Z,99315.19
2023-05-05T13:30:22.443Z,99306.09
2023-05-05T13:32:48.848Z,99297.38
2023-05-05T13:35:16.564Z,99301.81
2023-05-05T13:37:43.297Z,99289.59
2023-05-05T13:40:09.664Z,99277.72
2023-05-05T13:42:36.012Z,99282.63
2023-05-05T13:45:02.389Z,99281.88
2023-05-05T13:47:28.740Z,99285.03
2023-05-05T13:49:55.148Z,99286.59
2023-05-05T13:52:21.616Z,99286.22
2023-05-05T13:54:47.949Z,99281.41
2023-05-05T13:57:14.401Z,99282.63
2023-05-05T13:59:40.867Z,99277.81
2023-05-05T14:02:07.248Z,99282.91
2023-05-05T14:04:33.800Z,99280.50
2023-05-05T14:07:00.281Z,99268.53
2023-05-05T14:09:26.663Z,99276.06
2023-05-05T14:11:53.056Z,99272.06
2023-05-05T14:14:19.423Z,99270.50
2023-05-05T14:16:47.287Z,99271.16
2023-05-05T14:19:14.900Z,99264.34
2023-05-05T14:21:41.260Z,99259.16
2023-05-05T14:24:07.582Z,99255.88
2023-05-05T14:26:33.916Z,99261.44
2023-05-05T14:29:00.288Z,99263.13
2023-05-05T14:31:26.779Z,99263.91
2023-05-05T14:33:53.269Z,99259.16
2023-05-05T14:36:19.652Z,99256.75
2023-05-05T14:38:46.040Z,99262.34
2023-05-05T14:41:12.451Z,99269.44
2023-05-05T14:43:38.830Z,99266.19
2023-05-05T14:46:05.341Z,99261.41
2023-05-05T14:48:31.788Z,99262.94
2023-05-05T14:50:58.167Z,99255.66
2023-05-05T14:53:24.476Z,99254.59
2023-05-05T14:55:50.815Z,99265.69
2023-05-05T14:58:17.193Z,99256.81
2023-05-05T15:00:43.536Z,99258.75
2023-05-05T15:03:10.123Z,99265.28
2023-05-05T15:05:36.552Z,99261.69
2023-05-05T15:08:02.886Z,99268.06
2023-05-05T15:10:29.219Z,99260.59
2023-05-05T15:12:55.596Z,99258.13
2023-05-05T15:15:21.974Z,99258.97
2023-05-05T15:17:48.342Z,99259.34
2023-05-05T15:20:14.764Z,99248.28
2023-05-05T15:22:41.096Z,99250.78
2023-05-05T15:25:07.697Z,99251.50
2023-05-05T15:27:34.303Z,99252.47
2023-05-05T15:30:00.682Z,99246.47
2023-05-05T15:32:27.048Z,99246.06
2023-05-05T15:34:53.461Z,99234.13
2023-05-05T15:37:19.772Z,99242.91
2023-05-05T15:39:46.143Z,99243.97
2023-05-05T15:42:12.559Z,99243.91
2023-05-05T15:44:38.896Z,99245.44
2023-05-05T15:47:05.343Z,99234.66
2023-05-05T15:49:31.885Z,99234.22
2023-05-05T15:51:58.272Z,99236.22
2023-05-05T15:54:24.634Z,99235.00
2023-05-05T15:56:51.176Z,99233.44
2023-05-05T15:59:18.610Z,99224.16
2023-05-05T16:01:45.503Z,99214.81
2023-05-05T16:04:11.908Z,99225.41
2023-05-05T16:06:38.251Z,99220.59
2023-05-05T16:09:04.593Z,99223.56
2023-05-05T16:11:30.985Z,99223.97
2023-05-05T16:13:57.309Z,99221.56
2023-05-05T16:16:23.651Z,99224.78
2023-05-05T16:18:50.124Z,99227.91
2023-05-05T16:21:16.461Z,99223.00
2023-05-05T16:23:42.765Z,99216.75
2023-05-05T16:26:09.143Z,99221.50
2023-05-05T16:28:35.473Z,99222.34
2023-05-05T16:31:01.822Z,99219.94
2023-05-05T16:33:28.180Z,99222.34
2023-05-05T16:35:54.509Z,99218.03
2023-05-05T16:38:20.874Z,99216.63
2023-05-05T16:40:47.226Z,99216.59
2023-05-05T16:43:13.573Z,99211.00
2023-05-05T16:45:39.882Z,99205.16
2023-05-05T16:48:08.809Z,99213.41
2023-05-05T16:50:35.480Z,99205.09
2023-05-05T16:53:01.852Z,99204.31
2023-05-05T16:55:28.218Z,99207.94
2023-05-05T16:57:54.606Z,99211.97
2023-05-05T17:00:20.947Z,99208.44
2023-05-05T17:02:47.384Z,99202.25
2023-05-05T17:05:13.807Z,99209.06
2023-05-05T17:07:40.267Z,99205.94
2023-05-05T17:10:06.706Z,99217.09
2023-05-05T17:12:33.077Z,99210.75
2023-05-05T17:14:59.464Z,99215.78
2023-05-05T17:17:25.910Z,99211.63
2023-05-05T17:19:52.394Z,99222.78
2023-05-05T17:22:18.719Z,99212.03
2023-05-05T17:24:45.080Z,99216.03
2023-05-05T17:27:11.395Z,99216.69
2023-05-05T17:29:37.710Z,99215.44
2023-05-05T17:32:04.178Z,99219.72
2023-05-05T17:34:30.593Z,99212.97
2023-05-05T17:36:56.924Z,99224.56
2023-05-05T17:39:23.309Z,99221.41
2023-05-05T17:41:49.648Z,99216.69
2023-05-05T17:44:15.965Z,99221.25
2023-05-05T17:46:42.315Z,99220.38
2023-05-05T17:49:08.651Z,99223.81
2023-05-05T17:51:34.958Z,99224.28
2023-05-05T17:54:01.576Z,99223.94
2023-05-05T17:56:27.954Z,99230.66
2023-05-05T17:58:54.300Z,99236.50
2023-05-05T18:01:20.695Z,99230.69
2023-05-05T18:03:47.082Z,99222.50
2023-05-05T18:06:13.450Z,99239.16
2023-05-05T18:08:39.804Z,99228.47
2023-05-05T18:11:06.128Z,99229.91
2023-05-05T18:13:32.457Z,99232.97
2023-05-05T18:15:58.853Z,99221.91
2023-05-05T18:18:25.254Z,99234.59
2023-05-05T18:20:51.614Z,99236.59
2023-05-05T18:23:18.194Z,99233.84
2023-05-05T18:25:44.543Z,99237.84
2023-05-05T18:28:10.870Z,99239.44
2023-05-05T18:30:37.237Z,99242.63
2023-05-05T18:33:03.599Z,99236.28
2023-05-05T18:35:29.961Z,99249.84
2023-05-05T18:37:56.467Z,99249.47
2023-05-05T18:40:22.785Z,99256.63
2023-05-05T18:42:49.113Z,99253.09
2023-05-05T18:45:15.511Z,99268.22
2023-05-05T18:47:41.893Z,99256.31
2023-05-05T18:50:08.290Z,99259.91
2023-05-05T18:52:34.660Z,99252.75
2023-05-05T18:55:00.980Z,99257.94
2023-05-05T18:57:27.320Z,99261.53
2023-05-05T18:59:53.678Z,99261.91
2023-05-05T19:02:20.076Z,99262.75
2023-05-05T19:04:46.464Z,99266.78
2023-05-05T19:07:16.341Z,99262.81
2023-05-05T19:09:50.354Z,99262.81
2023-05-05T19:12:16.769Z,99249.34
2023-05-05T19:14:43.087Z,99250.13
2023-05-05T19:17:09.411Z,99254.88
2023-05-05T19:19:35.782Z,99252.50
2023-05-05T19:22:03.008Z,99248.53
2023-05-05T19:24:30.039Z,99248.53
2023-05-05T19:26:56.410Z,99251.31
2023-05-05T19:29:22.749Z,99253.69
2023-05-05T19:31:49.128Z,99238.22
2023-05-05T19:34:15.518Z,99252.47
2023-05-05T19:36:41.877Z,99244.91
2023-05-05T19:39:08.313Z,99238.16
2023-05-05T19:41:34.772Z,99244.88
2023-05-05T19:44:01.181Z,99243.31
2023-05-05T19:46:27.600Z,99242.91
2023-05-05T19:48:54.026Z,99243.69
2023-05-05T19:51:20.341Z,99241.28
2023-05-05T19:53:46.710Z,99250.75
2023-05-05T19:56:13.073Z,99246.41
2023-05-05T19:58:39.395Z,99242.44
2023-05-05T20:01:05.766Z,99245.56
2023-05-05T20:03:32.260Z,99244.78
2023-05-05T20:05:58.609Z,99249.50
2023-05-05T20:08:24.955Z,99251.13
2023-05-05T20:10:51.318Z,99239.22
2023-05-05T20:13:17.702Z,99247.91
2023-05-05T20:15:44.098Z,99243.91
2023-05-05T20:18:10.521Z,99245.09
2023-05-05T20:20:36.846Z,99245.06
2023-05-05T20:23:03.201Z,99237.53
2023-05-05T20:25:29.574Z,99219.59
2023-05-05T20:27:55.909Z,99240.28
2023-05-05T20:30:22.250Z,99233.09
2023-05-05T20:32:48.683Z,99231.13
2023-05-05T20:35:15.033Z,99232.31
2023-05-05T20:37:41.365Z,99234.66
2023-05-05T20:40:07.852Z,99226.72
2023-05-05T20:42:34.435Z,99230.66
2023-05-05T20:45:00.768Z,99230.66
2023-05-05T20:47:27.152Z,99232.22
2023-05-05T20:49:53.498Z,99227.44
2023-05-05T20:52:19.807Z,99235.34
2023-05-05T20:54:46.164Z,99225.41
2023-05-05T20:57:12.492Z,99222.25
2023-05-05T20:59:38.915Z,99222.22
2023-05-05T21:02:05.314Z,99222.94
2023-05-05T21:04:31.870Z,99218.59
2023-05-05T21:06:58.280Z,99219.34
2023-05-05T21:09:24.862Z,99209.41
2023-05-05T21:11:51.225Z,99208.97
2023-05-05T21:14:17.560Z,99205.38
2023-05-05T21:16:43.959Z,99212.06
2023-05-05T21:19:10.321Z,99213.22
2023-05-05T21:21:36.633Z,99211.22
2023-05-05T21:24:04.286Z,99201.31
2023-05-05T21:26:31.766Z,99196.13
2023-05-05T21:28:58.104Z,99197.66
2023-05-05T21:31:24.492Z,99200.38
2023-05-05T21:33:50.802Z,99198.78
2023-05-05T21:36:17.118Z,99189.63
2023-05-05T21:38:43.516Z,99197.47
2023-05-05T21:41:09.868Z,99197.00
2023-05-05T21:43:36.238Z,99197.00
2023-05-05T21:46:02.731Z,99196.16
2023-05-05T21:48:29.133Z,99184.63
2023-05-05T21:50:55.445Z,99182.19
2023-05-05T21:53:21.828Z,99188.06
2023-05-05T21:55:48.213Z,99188.81
2023-05-05T21:58:14.513Z,99184.94
2023-05-05T22:00:40.911Z,99197.22
2023-05-05T22:03:07.377Z,99196.38
2023-05-05T22:05:33.777Z,99195.97
2023-05-05T22:08:00.161Z,99199.44
2023-05-05T22:10:26.478Z,99187.91
2023-05-05T22:12:53.009Z,99199.66
2023-05-05T22:15:19.388Z,99191.25
2023-05-05T22:17:45.848Z,99192.31
2023-05-05T22:20:12.208Z,99180.69
2023-05-05T22:22:38.602Z,99178.22
2023-05-05T22:25:04.955Z,99171.84
2023-05-05T22:27:31.262Z,99167.38
2023-05-05T22:29:57.655Z,99174.00
2023-05-05T22:32:23.978Z,99170.72
2023-05-05T22:34:50.362Z,99171.06
2023-05-05T22:37:16.724Z,99175.66
2023-05-05T22:39:43.110Z,99165.69
2023-05-05T22:42:09.495Z,99164.84
2023-05-05T22:44:35.848Z,99163.97
2023-05-05T22:47:02.210Z,99162.69
2023-05-05T22:49:28.624Z,99157.53
2023-05-05T22:51:55.116Z,99151.13
2023-05-05T22:54:21.468Z,99145.13
2023-05-05T22:56:48.380Z,99158.88
2023-05-05T22:59:14.736Z,99156.88
2023-05-05T23:01:41.185Z,99158.34
2023-05-05T23:04:07.586Z,99146.03
2023-05-05T23:06:33.965Z,99149.06
2023-05-05T23:09:00.294Z,99145.47
2023-05-05T23:11:26.607Z,99151.66
2023-05-05T23:13:53.004Z,99154.53
2023-05-05T23:16:19.368Z,99158.75
2023-05-05T23:18:45.736Z,99150.63
2023-05-05T23:21:12.159Z,99161.56
2023-05-05T23:23:38.501Z,99163.81
2023-05-05T23:26:04.834Z,99163.34
2023-05-05T23:28:31.193Z,99164.88
2023-05-05T23:30:57.580Z,99164.00
2023-05-05T23:33:23.922Z,99165.91
2023-05-05T23:35:50.319Z,99167.81
2023-05-05T23:38:16.644Z,99161.41
2023-05-05T23:40:42.989Z,99159.25
2023-05-05T23:43:09.363Z,99151.31
2023-05-05T23:45:35.699Z,99145.31
2023-05-05T23:48:02.037Z,99148.00
2023-05-05T23:50:28.414Z,99145.97
2023-05-05T23:52:54.716Z,99143.72
2023-05-05T23:55:21.080Z,99138.22
2023-05-05T23:57:47.433Z,99139.38
